Greenview, CA (96037)

6:55 PM PDT on August 20, 2014 (GMT -0700)
KCAETNA3 | Change Station
CLOSE
Current Station
Personal Weather Station
Location: Island Rd, Scott Valley, CA
Elevation: 2728 ft
Nearby Weather Stations

Elev 2728 ft 41.55 °N, 122.85 °W | Updated 29 seconds ago

Clear
Clear
79.6 °F
Feels Like 80 °F
N
6.0
Wind Variable Wind from NW
Gusts 9.0 mph

Today
High -- | Low -- °F
--% Chance of Precip.
Yesterday
High -- | Low -- °F
Precip. -- in
6:25 AM 8:03 PM
Waning Crescent, 17% visible
Pressure 29.85 in
Visibility 10.0 miles
Clouds Clear
Heat Index 80 °F
Dew Point 55 °F
Humidity 43%
Rainfall 0.00 in
Snow Depth Not available.
UV 2 out of 12
Pollen 5.30 out of 12
Air Quality Not available.
Flu Activity Not available.
METAR KSIY 210053Z AUTO 02017G21KT 10SM CLR 28/11 A2989 RMK AO2 PK WND 01026/0017 SLP108 T02830111

More Conditions Fewer Conditions

Pressure 29.85 in
Visibility 10.0 miles
Clouds Clear
Heat Index 80 °F
Dew Point 55 °F
Humidity 43%
Rainfall 0.00 in
Snow Depth Not available.
UV 2 out of 12
Pollen 5.30 out of 12
Air Quality Not available.
Flu Activity Not available.
METAR KSIY 210053Z AUTO 02017G21KT 10SM CLR 28/11 A2989 RMK AO2 PK WND 01026/0017 SLP108 T02830111

More Conditions Fewer Conditions

10-Day Weather Forecast

Almanac

Astronomy

Aug. 20, 2014 Rise Set
Actual Time 6:25 AM PDT 8:03 PM PDT
Civil Twilight 5:56 AM PDT 8:32 PM PDT
Nautical Twilight 5:20 AM PDT 9:08 PM PDT
Astronomical Twilight 4:42 AM PDT 9:46 PM PDT
Moon 2:08 AM PDT (8/20) 4:54 PM PDT (8/20)
Length of Visible Light 14h 36m
Length of Day
13h 37m
Tomorrow will be 2m 32s shorter.
Waning Crescent, 17% of the Moon is Illuminated
Today
Waning Crescent
Aug 25
New
Sep 2
First Quarter
Sep 8
Full
Sep 15
Last Quarter

Today's Extremes

State Highs State Lows

Community

WunderPhotos

Upload Photos

1,745,859 photos uploaded!

WunderBlogs® & News

Nearby

Snow Depth

Station Depth Elevation
Adin Mountain 1 in 6200 ft
Cedar Pass 0 in 7100 ft
Summit Meadow 0 in 9122 ft
Leavitt Meadows 0 in 7200 ft

Earthquake Activity

City Distance Mag. Time & Date
No recent earthquake activity has been reported nearby.
Minimum magnitude displayed is 2.5.

Coastal Water Temperatures

Place Temperature
No Stations Reporting

Nearby Weather Stations